Time;durP1;ratioP1;P1;durP2;ratioP2;P2;SDS_P1;SDS_P2;PMS_P1;PMS_P2;Temp;Humidity;BMP_temperature;BMP_pressure;BME280_temperature;BME280_humidity;BME280_pressure;Samples;Min_cycle;Max_cycle;Signal;HPM_P1;HPM_P2
2023/08/20 00:02:09;;;;;;;2.90;0.73;;;17.90;99.90;;;;;;5035079;28;20056;-75
2023/08/20 00:04:36;;;;;;;4.13;0.40;;;17.90;99.90;;;;;;5034835;28;20029;-75
2023/08/20 00:07:02;;;;;;;3.55;0.35;;;17.90;99.90;;;;;;5034486;28;20152;-75
2023/08/20 00:09:29;;;;;;;5.50;0.63;;;18.00;99.90;;;;;;5034563;28;20096;-75
2023/08/20 00:11:54;;;;;;;5.88;0.20;;;18.00;99.90;;;;;;5034239;28;20021;-75
2023/08/20 00:14:20;;;;;;;3.28;0.30;;;18.00;99.90;;;;;;5034248;28;20021;-74
2023/08/20 00:16:46;;;;;;;2.45;0.30;;;18.10;99.90;;;;;;5034692;28;20048;-75
2023/08/20 00:19:12;;;;;;;3.78;0.40;;;18.10;99.90;;;;;;5032923;28;20481;-75
2023/08/20 00:21:42;;;;;;;2.05;0.30;;;18.20;99.90;;;;;;5034194;28;20092;-75
2023/08/20 00:24:08;;;;;;;6.93;0.30;;;18.10;99.90;;;;;;5033784;28;20516;-74
2023/08/20 00:26:34;;;;;;;3.28;0.82;;;18.10;99.90;;;;;;5032792;28;20029;-75
2023/08/20 00:29:00;;;;;;;4.93;0.82;;;18.10;99.90;;;;;;5034077;28;20022;-75
2023/08/20 00:31:25;;;;;;;2.78;0.30;;;18.10;99.90;;;;;;5032720;28;20032;-75
2023/08/20 00:33:51;;;;;;;6.75;0.10;;;18.10;99.90;;;;;;5032707;28;20014;-75
2023/08/20 00:36:16;;;;;;;3.92;0.17;;;18.10;99.90;;;;;;5033829;28;20060;-75
2023/08/20 00:38:42;;;;;;;4.78;0.20;;;18.10;99.90;;;;;;5034257;28;20030;-75
2023/08/20 00:41:07;;;;;;;5.78;0.50;;;18.00;99.90;;;;;;5034286;28;20021;-75
2023/08/20 00:43:33;;;;;;;3.78;0.20;;;18.10;99.90;;;;;;5033783;28;20469;-75
2023/08/20 00:45:59;;;;;;;3.97;0.77;;;18.10;99.90;;;;;;5034141;28;20025;-75
2023/08/20 00:48:25;;;;;;;3.05;0.20;;;18.10;99.90;;;;;;5033729;28;20566;-74
2023/08/20 00:50:51;;;;;;;3.55;0.40;;;18.00;99.90;;;;;;5034107;28;20014;-75
2023/08/20 00:53:17;;;;;;;2.97;0.63;;;18.00;99.90;;;;;;5033637;28;20040;-76
2023/08/20 00:55:43;;;;;;;2.15;0.35;;;18.00;99.90;;;;;;5033555;28;20080;-75
2023/08/20 00:58:10;;;;;;;6.18;0.63;;;17.90;99.90;;;;;;5032343;28;20033;-75
2023/08/20 01:00:35;;;;;;;2.20;0.10;;;17.90;99.90;;;;;;5033611;28;20044;-75
2023/08/20 01:03:01;;;;;;;4.15;0.57;;;17.80;99.90;;;;;;5033822;28;20030;-75
2023/08/20 01:05:34;;;;;;;4.70;0.40;;;17.70;99.90;;;;;;5032355;28;20120;-75
2023/08/20 01:08:31;;;;;;;5.78;0.52;;;17.70;99.90;;;;;;5033918;28;20359;-76
2023/08/20 01:11:29;;;;;;;2.38;0.40;;;17.70;99.90;;;;;;5033894;28;20032;-75
2023/08/20 01:13:55;;;;;;;4.28;0.47;;;17.60;99.90;;;;;;5033044;28;20028;-75
2023/08/20 01:16:21;;;;;;;2.22;0.10;;;17.60;99.90;;;;;;5033260;28;20512;-76
2023/08/20 01:18:48;;;;;;;6.47;0.52;;;17.70;99.90;;;;;;5031964;28;20029;-76
2023/08/20 01:21:40;;;;;;;2.67;0.38;;;17.70;99.90;;;;;;5033315;28;20022;-75
2023/08/20 01:24:17;;;;;;;5.03;0.25;;;17.80;99.90;;;;;;5030552;28;20068;-75
2023/08/20 01:26:51;;;;;;;1.80;0.47;;;17.80;99.90;;;;;;5033093;28;20477;-75
2023/08/20 01:29:16;;;;;;;3.28;0.30;;;17.80;99.90;;;;;;5033698;28;20118;-75
2023/08/20 01:31:44;;;;;;;6.85;0.17;;;17.80;99.90;;;;;;5031808;28;20022;-76
2023/08/20 01:34:10;;;;;;;7.22;0.20;;;17.80;99.90;;;;;;5033014;28;20104;-74
2023/08/20 01:36:35;;;;;;;4.88;0.35;;;17.90;99.90;;;;;;5033101;28;20084;-75
2023/08/20 01:39:01;;;;;;;2.45;0.15;;;17.90;99.90;;;;;;5035618;28;20053;-75
2023/08/20 01:41:26;;;;;;;5.85;0.30;;;17.90;99.90;;;;;;5037709;28;20036;-75
2023/08/20 01:43:52;;;;;;;3.42;0.55;;;17.90;99.90;;;;;;5037722;28;20047;-75
2023/08/20 01:46:17;;;;;;;6.47;0.65;;;17.80;99.90;;;;;;5035389;28;20048;-76
2023/08/20 01:48:43;;;;;;;1.50;0.32;;;17.70;99.90;;;;;;5036771;28;20068;-77
2023/08/20 01:51:09;;;;;;;2.85;0.20;;;17.70;99.90;;;;;;5035731;28;20032;-77
2023/08/20 01:53:35;;;;;;;4.25;0.05;;;17.60;99.90;;;;;;5037132;28;20029;-77
2023/08/20 01:56:00;;;;;;;1.70;0.10;;;17.70;99.90;;;;;;5036965;28;20079;-77
2023/08/20 01:58:26;;;;;;;3.55;0.30;;;17.50;99.90;;;;;;5037108;28;20078;-76
2023/08/20 02:00:52;;;;;;;1.73;0.20;;;17.40;99.90;;;;;;5036461;28;20126;-77
2023/08/20 02:03:17;;;;;;;4.95;0.30;;;17.50;99.90;;;;;;5036583;28;20069;-76
2023/08/20 02:05:43;;;;;;;10.40;0.95;;;17.80;99.90;;;;;;5036563;28;20415;-77
2023/08/20 02:08:08;;;;;;;4.53;0.20;;;17.30;99.90;;;;;;5036700;28;20024;-78
2023/08/20 02:10:34;;;;;;;2.95;0.47;;;17.30;99.90;;;;;;5036461;28;20111;-77
2023/08/20 02:13:00;;;;;;;3.53;0.20;;;17.30;99.90;;;;;;5036891;28;20483;-77
2023/08/20 02:15:25;;;;;;;0.88;0.10;;;17.20;99.90;;;;;;5035273;28;20025;-76
2023/08/20 02:17:51;;;;;;;3.00;0.45;;;17.10;99.90;;;;;;5036739;28;20109;-76
2023/08/20 02:20:17;;;;;;;2.10;0.10;;;17.10;99.90;;;;;;5036394;28;20021;-76
2023/08/20 02:22:42;;;;;;;1.80;0.10;;;17.00;99.90;;;;;;5036193;28;20477;-77
2023/08/20 02:25:08;;;;;;;4.38;0.40;;;17.00;99.90;;;;;;5036013;28;20097;-76
2023/08/20 02:27:33;;;;;;;1.20;0.00;;;16.90;99.90;;;;;;5036267;28;20018;-76
2023/08/20 02:29:59;;;;;;;9.23;0.68;;;16.80;99.90;;;;;;5036131;28;20116;-76
2023/08/20 02:32:28;;;;;;;4.13;0.20;;;16.80;99.90;;;;;;5034840;28;20461;-76
2023/08/20 02:34:54;;;;;;;9.00;0.45;;;16.70;99.90;;;;;;5035574;28;20030;-77
2023/08/20 02:37:20;;;;;;;2.95;0.38;;;16.70;99.90;;;;;;5036212;28;20029;-75
2023/08/20 02:39:46;;;;;;;2.70;0.40;;;16.70;99.90;;;;;;5036072;28;20108;-77
2023/08/20 02:42:11;;;;;;;2.28;0.10;;;16.60;99.90;;;;;;5035849;28;20029;-76
2023/08/20 02:44:37;;;;;;;3.60;0.30;;;16.50;99.90;;;;;;5034255;28;20034;-76
2023/08/20 02:47:02;;;;;;;3.38;0.20;;;16.50;99.90;;;;;;5036060;28;20021;-77
2023/08/20 02:49:28;;;;;;;2.15;0.38;;;16.50;99.90;;;;;;5035081;28;20030;-77
2023/08/20 02:51:53;;;;;;;3.83;0.20;;;16.40;99.90;;;;;;5035645;28;20032;-77
2023/08/20 02:54:19;;;;;;;5.15;0.65;;;16.40;99.90;;;;;;5035686;28;20049;-76
2023/08/20 02:56:45;;;;;;;0.98;0.43;;;16.40;99.90;;;;;;5034381;28;20477;-76
2023/08/20 02:59:10;;;;;;;8.45;0.40;;;16.40;99.90;;;;;;5035353;28;20481;-75
2023/08/20 03:01:36;;;;;;;3.83;0.40;;;16.40;99.90;;;;;;5035610;28;20565;-76
2023/08/20 03:04:01;;;;;;;0.95;0.30;;;16.40;99.90;;;;;;5034213;28;20104;-77
2023/08/20 03:06:27;;;;;;;2.88;0.17;;;16.40;99.90;;;;;;5035421;28;20439;-77
2023/08/20 03:08:52;;;;;;;6.22;0.75;;;16.30;99.90;;;;;;5034063;28;20038;-77
2023/08/20 03:11:18;;;;;;;3.95;0.20;;;16.30;99.90;;;;;;5035853;28;20025;-77
2023/08/20 03:13:45;;;;;;;3.90;0.73;;;16.20;99.90;;;;;;5035444;28;20385;-77
2023/08/20 03:16:10;;;;;;;5.18;0.40;;;16.20;99.90;;;;;;5035283;28;20017;-77
2023/08/20 03:18:36;;;;;;;4.85;0.25;;;16.10;99.90;;;;;;5035103;28;20040;-77
2023/08/20 03:21:01;;;;;;;3.20;0.30;;;16.10;99.90;;;;;;5035364;28;20032;-75
2023/08/20 03:23:28;;;;;;;0.75;0.32;;;16.10;99.90;;;;;;5035128;28;20056;-77
2023/08/20 03:25:58;;;;;;;2.25;0.65;;;16.20;99.90;;;;;;5033893;28;20061;-76
2023/08/20 03:28:24;;;;;;;7.57;0.75;;;16.20;99.90;;;;;;5035254;28;20048;-76
2023/08/20 03:30:49;;;;;;;2.90;0.32;;;16.20;99.90;;;;;;5033951;28;20041;-77
2023/08/20 03:33:16;;;;;;;4.15;0.82;;;16.60;99.90;;;;;;5035250;28;20028;-77
2023/08/20 03:35:42;;;;;;;5.40;0.35;;;16.30;99.90;;;;;;5035406;28;20480;-76
2023/08/20 03:38:08;;;;;;;2.92;0.55;;;16.30;99.90;;;;;;5034222;28;20104;-77
2023/08/20 03:40:33;;;;;;;2.92;0.35;;;16.30;99.90;;;;;;5035305;28;20108;-77
2023/08/20 03:42:59;;;;;;;5.03;0.55;;;16.30;99.90;;;;;;5035013;28;20108;-76
2023/08/20 03:45:26;;;;;;;4.65;0.98;;;16.30;99.90;;;;;;5034592;28;20030;-77
2023/08/20 03:47:51;;;;;;;3.10;0.30;;;16.40;99.90;;;;;;5033514;28;20025;-77
2023/08/20 03:50:17;;;;;;;6.50;0.88;;;16.40;99.90;;;;;;5034791;28;20025;-77
2023/08/20 03:52:42;;;;;;;6.32;1.08;;;16.40;99.90;;;;;;5034748;28;20018;-77
2023/08/20 03:55:08;;;;;;;3.60;0.22;;;16.30;99.90;;;;;;5033359;28;20469;-76
2023/08/20 03:57:37;;;;;;;2.15;0.10;;;16.30;99.90;;;;;;5034704;28;20065;-76
2023/08/20 04:00:03;;;;;;;4.75;0.75;;;16.30;99.90;;;;;;5033190;28;20036;-77
2023/08/20 04:02:29;;;;;;;5.43;0.45;;;16.30;99.90;;;;;;5034165;28;20032;-76
2023/08/20 04:04:57;;;;;;;9.20;0.88;;;16.20;99.90;;;;;;5034490;28;20033;-76
2023/08/20 04:07:23;;;;;;;4.07;0.75;;;16.20;99.90;;;;;;5033336;28;20053;-77
2023/08/20 04:09:48;;;;;;;5.50;0.80;;;16.30;99.90;;;;;;5034444;28;20021;-77
2023/08/20 04:12:14;;;;;;;5.68;0.55;;;16.20;99.90;;;;;;5034480;28;20055;-76
2023/08/20 04:14:39;;;;;;;3.90;0.40;;;16.20;99.90;;;;;;5032984;28;20037;-77
2023/08/20 04:17:05;;;;;;;6.30;1.15;;;16.20;99.90;;;;;;5034560;28;20338;-76
2023/08/20 04:19:30;;;;;;;5.00;0.73;;;16.10;99.90;;;;;;5033958;28;20029;-76
2023/08/20 04:21:56;;;;;;;5.93;0.32;;;16.10;99.90;;;;;;5034255;28;20021;-76
2023/08/20 04:24:21;;;;;;;4.07;0.68;;;16.10;99.90;;;;;;5033841;28;20029;-76
2023/08/20 04:26:47;;;;;;;3.40;0.70;;;16.10;99.90;;;;;;5033760;28;20022;-76
2023/08/20 04:29:12;;;;;;;4.93;0.50;;;16.10;99.90;;;;;;5032566;28;20049;-77
2023/08/20 04:31:38;;;;;;;4.57;0.57;;;15.90;99.90;;;;;;5033771;28;20021;-76
2023/08/20 04:34:03;;;;;;;5.13;0.40;;;15.90;99.90;;;;;;5033869;28;20025;-77
2023/08/20 04:36:29;;;;;;;3.22;0.47;;;;;;;;;;5033914;28;20388;-77
2023/08/20 04:38:55;;;;;;;7.57;0.82;;;15.80;99.90;;;;;;5033853;28;20053;-77
2023/08/20 04:41:20;;;;;;;5.45;0.88;;;15.80;99.90;;;;;;5032480;28;20025;-77
2023/08/20 04:43:46;;;;;;;4.40;0.68;;;15.80;99.90;;;;;;5033631;28;20041;-77
2023/08/20 04:46:12;;;;;;;1.58;0.20;;;15.80;99.90;;;;;;5033275;28;20029;-77
2023/08/20 04:48:37;;;;;;;3.83;0.45;;;15.80;99.90;;;;;;5032164;28;20021;-76
2023/08/20 04:51:03;;;;;;;3.20;0.85;;;15.80;99.90;;;;;;5034031;28;20434;-76
2023/08/20 04:53:29;;;;;;;4.22;0.17;;;15.80;99.90;;;;;;5034093;28;20022;-77
2023/08/20 04:55:54;;;;;;;8.23;0.60;;;15.80;99.90;;;;;;5033773;28;20025;-77
2023/08/20 04:58:20;;;;;;;5.18;0.38;;;15.70;99.90;;;;;;5034128;28;20388;-77
2023/08/20 05:00:45;;;;;;;2.08;0.30;;;15.80;99.90;;;;;;5032327;28;20120;-78
2023/08/20 05:03:11;;;;;;;1.58;0.55;;;15.70;99.90;;;;;;5033985;28;20025;-77
2023/08/20 05:05:37;;;;;;;2.83;0.52;;;15.70;99.90;;;;;;5033838;28;20037;-77
2023/08/20 05:08:02;;;;;;;5.28;0.85;;;15.80;99.90;;;;;;5032400;28;20500;-77
2023/08/20 05:10:28;;;;;;;3.20;0.35;;;15.70;99.90;;;;;;5033779;28;20026;-77
2023/08/20 05:12:53;;;;;;;5.03;0.22;;;15.80;99.90;;;;;;5032831;28;20025;-77
2023/08/20 05:15:20;;;;;;;4.57;0.75;;;15.80;99.90;;;;;;5031923;28;20021;-77
2023/08/20 05:17:45;;;;;;;3.75;0.45;;;16.20;99.90;;;;;;5033183;28;20025;-77
2023/08/20 05:20:11;;;;;;;7.55;0.63;;;15.80;99.90;;;;;;5031800;28;20171;-77
2023/08/20 05:22:36;;;;;;;1.75;0.65;;;15.90;99.90;;;;;;5031958;28;20028;-76
2023/08/20 05:25:02;;;;;;;1.30;0.25;;;15.90;99.90;;;;;;5031686;28;20029;-76
2023/08/20 05:27:28;;;;;;;3.50;1.25;;;16.00;99.90;;;;;;5032990;28;20026;-77
2023/08/20 05:29:53;;;;;;;2.60;0.77;;;16.10;99.90;;;;;;5033082;28;20024;-77
2023/08/20 05:32:19;;;;;;;2.55;0.50;;;16.20;99.90;;;;;;5031653;28;20026;-77
2023/08/20 05:34:44;;;;;;;1.95;0.30;;;16.30;99.90;;;;;;5032893;28;20029;-76
2023/08/20 05:37:10;;;;;;;1.25;0.32;;;16.40;99.90;;;;;;5032898;28;20043;-76
2023/08/20 05:39:43;;;;;;;2.88;0.20;;;16.50;99.90;;;;;;5032897;28;20060;-76
2023/08/20 05:42:09;;;;;;;4.38;0.40;;;16.60;99.90;;;;;;5032859;28;20473;-77
2023/08/20 05:44:34;;;;;;;4.05;0.43;;;16.70;99.90;;;;;;5032851;28;20021;-76
2023/08/20 05:47:00;;;;;;;3.28;0.60;;;16.80;99.90;;;;;;5033285;28;20034;-76
2023/08/20 05:49:26;;;;;;;2.58;0.13;;;16.90;99.90;;;;;;5032966;28;20492;-76
2023/08/20 05:51:52;;;;;;;2.85;0.10;;;17.10;99.90;;;;;;5033041;28;20020;-76
2023/08/20 05:54:17;;;;;;;4.57;0.73;;;17.20;99.90;;;;;;5031654;28;20066;-76
2023/08/20 05:56:43;;;;;;;6.70;0.60;;;17.40;99.90;;;;;;5032802;28;20029;-78
2023/08/20 05:59:08;;;;;;;4.53;0.60;;;17.50;99.90;;;;;;5032817;28;20022;-76
2023/08/20 06:01:34;;;;;;;9.25;0.82;;;17.60;99.90;;;;;;5032855;28;20076;-76
2023/08/20 06:04:00;;;;;;;5.38;0.30;;;17.80;99.90;;;;;;5033067;28;20057;-77
2023/08/20 06:06:26;;;;;;;2.17;0.20;;;17.90;99.90;;;;;;5031534;28;20037;-77
2023/08/20 06:08:51;;;;;;;6.97;0.68;;;18.10;99.90;;;;;;5031426;28;20107;-77
2023/08/20 06:11:19;;;;;;;5.55;0.10;;;18.20;99.90;;;;;;5031442;28;20025;-77
2023/08/20 06:13:44;;;;;;;3.85;0.35;;;18.40;99.90;;;;;;5032838;28;20022;-76
2023/08/20 06:16:10;;;;;;;3.70;0.22;;;18.60;99.90;;;;;;5032778;28;20030;-77
2023/08/20 06:18:36;;;;;;;1.25;0.13;;;18.70;99.90;;;;;;5032749;28;20029;-77
2023/08/20 06:21:02;;;;;;;3.55;0.00;;;18.80;99.90;;;;;;5031538;28;20018;-76
2023/08/20 06:23:28;;;;;;;1.75;0.20;;;18.90;99.90;;;;;;5032397;28;20401;-76
2023/08/20 06:25:54;;;;;;;4.10;0.25;;;19.00;99.90;;;;;;5035854;28;20035;-77
2023/08/20 06:28:19;;;;;;;4.03;0.10;;;19.10;99.90;;;;;;5034749;28;20018;-76
2023/08/20 06:30:45;;;;;;;1.27;0.20;;;19.10;99.90;;;;;;5036124;28;20028;-77
2023/08/20 06:33:11;;;;;;;6.43;0.52;;;19.30;99.90;;;;;;5036108;28;20021;-76
2023/08/20 06:35:37;;;;;;;3.33;0.45;;;19.40;99.90;;;;;;5036098;28;20543;-76
2023/08/20 06:38:03;;;;;;;7.97;0.63;;;19.50;99.90;;;;;;5034754;28;20032;-76
2023/08/20 06:40:29;;;;;;;4.35;0.30;;;19.60;99.90;;;;;;5035781;28;20030;-76
2023/08/20 06:42:54;;;;;;;3.72;0.10;;;19.80;99.90;;;;;;5035809;28;20045;-75
2023/08/20 06:45:20;;;;;;;2.22;0.22;;;20.70;99.90;;;;;;5034455;28;20489;-76
2023/08/20 06:47:45;;;;;;;2.30;0.10;;;19.80;99.90;;;;;;5034648;28;20013;-77
2023/08/20 06:50:11;;;;;;;2.63;0.10;;;19.90;99.90;;;;;;5035899;28;20022;-76
2023/08/20 06:52:37;;;;;;;3.42;0.20;;;20.00;99.90;;;;;;5034590;28;20056;-76
2023/08/20 06:55:03;;;;;;;3.78;0.38;;;20.00;99.90;;;;;;5035720;28;20371;-76
2023/08/20 06:57:28;;;;;;;5.35;0.08;;;20.10;99.90;;;;;;5034482;28;20500;-77
2023/08/20 06:59:54;;;;;;;3.80;0.32;;;20.70;99.90;;;;;;5035862;28;20112;-77
2023/08/20 07:02:19;;;;;;;4.35;0.10;;;20.30;99.90;;;;;;5034382;28;20077;-77
2023/08/20 07:04:45;;;;;;;4.93;0.32;;;20.40;99.90;;;;;;5035459;28;20100;-77
2023/08/20 07:07:13;;;;;;;4.10;0.17;;;20.40;99.90;;;;;;5035544;28;20026;-76
2023/08/20 07:09:39;;;;;;;5.03;0.10;;;20.70;99.90;;;;;;5035916;28;20547;-76
2023/08/20 07:12:05;;;;;;;4.75;0.63;;;20.60;99.90;;;;;;5033915;28;20025;-77
2023/08/20 07:14:30;;;;;;;3.13;0.22;;;20.70;99.90;;;;;;5035349;28;20481;-76
2023/08/20 07:16:56;;;;;;;2.83;0.20;;;20.80;99.90;;;;;;5035212;28;20481;-76
2023/08/20 07:19:22;;;;;;;4.07;0.28;;;20.80;99.90;;;;;;5034186;28;20033;-76
2023/08/20 07:21:47;;;;;;;6.22;0.43;;;20.80;99.90;;;;;;5034096;28;20027;-75
2023/08/20 07:24:13;;;;;;;4.43;0.10;;;20.90;99.90;;;;;;5035035;28;20029;-76
2023/08/20 07:26:39;;;;;;;3.63;0.32;;;20.90;99.90;;;;;;5034889;28;20036;-77
2023/08/20 07:29:04;;;;;;;4.10;0.20;;;21.00;99.90;;;;;;5035284;28;20033;-77
2023/08/20 07:31:32;;;;;;;2.33;0.10;;;21.70;99.90;;;;;;5033843;28;20013;-76
2023/08/20 07:34:00;;;;;;;4.67;0.20;;;21.20;99.90;;;;;;5035076;28;20398;-76
2023/08/20 07:36:26;;;;;;;8.02;0.55;;;21.30;99.90;;;;;;5034628;28;20033;-75
2023/08/20 07:38:53;;;;;;;3.45;0.15;;;21.50;99.90;;;;;;5035089;28;20033;-76
2023/08/20 07:41:19;;;;;;;2.58;0.10;;;21.40;99.90;;;;;;5035249;28;20049;-76
2023/08/20 07:43:46;;;;;;;2.72;0.10;;;21.50;99.90;;;;;;5034888;28;20485;-77
2023/08/20 07:46:12;;;;;;;2.85;0.90;;;21.50;99.90;;;;;;5033400;28;20025;-77
2023/08/20 07:48:38;;;;;;;4.97;0.17;;;21.60;99.90;;;;;;5035016;28;20022;-77
2023/08/20 07:51:04;;;;;;;2.97;0.30;;;21.90;99.90;;;;;;5034995;28;20021;-77
2023/08/20 07:53:31;;;;;;;4.90;0.43;;;21.90;99.90;;;;;;5035058;28;20553;-78
2023/08/20 07:55:58;;;;;;;5.55;0.32;;;21.80;99.90;;;;;;5035089;28;20428;-77
2023/08/20 07:58:24;;;;;;;2.55;0.00;;;22.00;99.90;;;;;;5035257;28;20036;-73
2023/08/20 08:00:50;;;;;;;5.95;0.63;;;22.10;99.90;;;;;;5033239;28;20025;-74
2023/08/20 08:03:16;;;;;;;4.18;0.30;;;22.10;99.90;;;;;;5033286;28;20026;-74
2023/08/20 08:05:49;;;;;;;5.78;1.00;;;22.40;99.90;;;;;;5034482;28;20037;-75
2023/08/20 08:08:18;;;;;;;6.07;0.43;;;22.20;99.90;;;;;;5033194;28;20047;-74
2023/08/20 08:10:45;;;;;;;2.58;0.10;;;22.20;99.90;;;;;;5034431;28;20017;-74
2023/08/20 08:13:12;;;;;;;2.80;0.00;;;22.20;99.90;;;;;;5034343;28;20022;-76
2023/08/20 08:15:38;;;;;;;2.75;0.38;;;22.20;99.90;;;;;;5034112;28;20524;-76
2023/08/20 08:18:04;;;;;;;3.58;0.05;;;22.20;99.90;;;;;;5034340;28;20026;-77
2023/08/20 08:20:30;;;;;;;3.30;0.45;;;22.40;99.90;;;;;;5034492;28;20030;-76
2023/08/20 08:22:55;;;;;;;3.88;0.30;;;22.40;99.90;;;;;;5034989;28;20044;-76
2023/08/20 08:25:23;;;;;;;2.40;0.40;;;22.50;99.90;;;;;;5033987;28;20104;-76
2023/08/20 08:27:49;;;;;;;3.83;0.00;;;22.60;99.90;;;;;;5033992;28;20028;-76
2023/08/20 08:30:14;;;;;;;1.98;0.08;;;22.80;99.90;;;;;;5033798;28;20104;-76
2023/08/20 08:32:40;;;;;;;2.80;0.25;;;22.90;99.90;;;;;;5033724;28;20025;-76
2023/08/20 08:35:07;;;;;;;1.40;0.43;;;22.90;99.90;;;;;;5033712;28;20025;-77
2023/08/20 08:37:32;;;;;;;2.20;0.40;;;23.00;99.90;;;;;;5032651;28;20078;-76
2023/08/20 08:39:58;;;;;;;2.97;0.30;;;23.00;99.90;;;;;;5033987;28;20108;-76
2023/08/20 08:42:24;;;;;;;1.83;0.00;;;23.10;99.90;;;;;;5033742;28;20127;-76
2023/08/20 08:44:50;;;;;;;4.03;0.03;;;23.20;99.90;;;;;;5032153;28;20370;-76
2023/08/20 08:47:16;;;;;;;2.65;0.00;;;23.20;99.90;;;;;;5032743;28;20056;-75
2023/08/20 08:49:43;;;;;;;4.55;0.10;;;23.20;99.90;;;;;;5033363;28;20048;-77
2023/08/20 08:52:10;;;;;;;6.63;0.05;;;23.30;99.90;;;;;;5033821;28;20476;-76
2023/08/20 08:54:36;;;;;;;5.70;0.25;;;23.40;99.90;;;;;;5033210;28;20014;-76
2023/08/20 08:57:02;;;;;;;3.08;0.13;;;23.40;99.90;;;;;;5033450;28;20080;-76
2023/08/20 08:59:28;;;;;;;3.45;0.47;;;23.50;99.90;;;;;;5033349;28;20038;-76
2023/08/20 09:01:54;;;;;;;2.00;0.20;;;23.50;99.90;;;;;;5033792;28;20029;-76
2023/08/20 09:04:19;;;;;;;2.55;0.08;;;23.60;99.90;;;;;;5033528;28;20037;-76
2023/08/20 09:06:47;;;;;;;2.88;0.10;;;23.70;99.90;;;;;;5033315;28;20030;-76
2023/08/20 09:09:13;;;;;;;4.65;0.10;;;23.60;99.90;;;;;;5032500;28;20028;-77
2023/08/20 09:11:38;;;;;;;1.40;0.05;;;23.70;99.90;;;;;;5033491;28;20013;-76
2023/08/20 09:14:04;;;;;;;3.55;0.30;;;23.70;99.90;;;;;;5032160;28;20044;-76
2023/08/20 09:16:30;;;;;;;1.33;0.00;;;23.80;99.90;;;;;;5032999;28;20092;-76
2023/08/20 09:18:59;;;;;;;0.70;0.00;;;23.90;99.90;;;;;;5031929;28;20507;-76
2023/08/20 09:21:30;;;;;;;;;;;24.00;99.90;;;;;;5034294;28;20030;-76
2023/08/20 09:24:02;;;;;;;0.50;0.05;;;24.10;99.90;;;;;;5033171;28;19905;-77
2023/08/20 09:26:27;;;;;;;4.57;0.95;;;24.10;99.90;;;;;;5033328;28;20032;-77
2023/08/20 09:28:56;;;;;;;5.63;0.10;;;24.00;99.90;;;;;;5033152;28;20029;-77
2023/08/20 09:31:39;;;;;;;1.02;0.00;;;24.10;99.90;;;;;;5031854;28;20014;-76
2023/08/20 09:34:05;;;;;;;4.65;0.60;;;24.20;99.90;;;;;;5033019;28;20366;-76
2023/08/20 09:36:32;;;;;;;2.10;0.10;;;24.20;99.90;;;;;;5031846;28;20076;-77
2023/08/20 09:38:58;;;;;;;0.88;0.00;;;24.30;99.90;;;;;;5033138;28;20108;-75
2023/08/20 09:41:25;;;;;;;4.15;0.28;;;24.40;99.90;;;;;;5033660;28;20049;-74
2023/08/20 09:43:57;;;;;;;3.15;0.10;;;24.40;99.90;;;;;;5033358;28;20029;-74
2023/08/20 09:46:25;;;;;;;2.63;0.40;;;24.50;99.90;;;;;;5033136;28;20026;-75
2023/08/20 09:48:54;;;;;;;0.55;0.00;;;24.50;99.90;;;;;;5033617;28;20435;-75
2023/08/20 09:51:25;;;;;;;1.45;0.00;;;24.70;99.90;;;;;;5033330;28;20028;-75
2023/08/20 09:54:03;;;;;;;5.72;0.65;;;24.70;99.90;;;;;;5033321;28;20045;-75
2023/08/20 09:56:30;;;;;;;1.13;0.00;;;24.60;99.90;;;;;;5032918;28;20022;-75
2023/08/20 09:58:58;;;;;;;1.92;0.00;;;24.60;99.90;;;;;;5033599;28;20436;-75
2023/08/20 10:01:25;;;;;;;1.20;0.00;;;24.70;99.90;;;;;;5035654;28;20037;-75
2023/08/20 10:03:54;;;;;;;0.82;0.10;;;24.90;99.90;;;;;;5037000;28;20029;-74
2023/08/20 10:06:20;;;;;;;2.15;0.25;;;25.00;99.90;;;;;;5036583;28;20440;-73
2023/08/20 10:08:46;;;;;;;0.77;0.00;;;25.10;99.90;;;;;;5036825;28;20099;-75
2023/08/20 10:11:12;;;;;;;2.13;0.30;;;25.10;99.90;;;;;;5037120;28;20030;-74
2023/08/20 10:13:38;;;;;;;1.15;0.17;;;25.20;99.90;;;;;;5037185;28;20022;-74
2023/08/20 10:16:04;;;;;;;2.17;0.00;;;25.20;99.90;;;;;;5036486;28;20021;-73
2023/08/20 10:18:30;;;;;;;3.40;0.00;;;25.30;99.90;;;;;;5036533;28;20022;-73
2023/08/20 10:20:59;;;;;;;1.98;0.00;;;25.30;99.90;;;;;;5036948;28;20032;-74
2023/08/20 10:23:24;;;;;;;3.47;0.10;;;25.30;99.90;;;;;;5035146;28;20485;-74
2023/08/20 10:25:52;;;;;;;1.38;0.00;;;25.20;99.90;;;;;;5036193;28;20048;-75
2023/08/20 10:28:22;;;;;;;2.30;0.10;;;25.30;99.90;;;;;;5035151;28;20120;-74
2023/08/20 10:31:11;;;;;;;1.27;0.00;;;25.40;99.90;;;;;;5036357;28;20032;-74
2023/08/20 10:33:57;;;;;;;1.30;0.00;;;25.60;99.90;;;;;;5036783;28;20025;-75
2023/08/20 10:36:27;;;;;;;2.05;0.00;;;25.60;99.90;;;;;;5036323;28;20061;-74
2023/08/20 10:38:56;;;;;;;0.20;0.00;;;25.80;99.90;;;;;;5036463;28;20485;-75
2023/08/20 10:41:25;;;;;;;2.65;0.00;;;25.60;99.90;;;;;;5036693;28;20021;-74
2023/08/20 10:43:52;;;;;;;2.40;0.03;;;25.60;99.90;;;;;;5036064;28;20596;-74
2023/08/20 10:46:25;;;;;;;2.55;0.13;;;25.90;99.90;;;;;;5035773;28;20025;-75
2023/08/20 10:48:58;;;;;;;1.17;0.00;;;26.20;99.90;;;;;;5034857;28;20033;-74
2023/08/20 10:51:34;;;;;;;0.70;0.00;;;26.40;99.90;;;;;;5035862;28;20076;-73
2023/08/20 10:54:05;;;;;;;2.67;0.13;;;26.30;99.90;;;;;;5036072;28;20477;-74
2023/08/20 10:56:47;;;;;;;2.08;0.20;;;26.50;99.90;;;;;;5034691;28;20515;-74
2023/08/20 10:59:15;;;;;;;1.80;0.00;;;26.70;99.50;;;;;;5035644;28;20029;-75
2023/08/20 11:01:43;;;;;;;1.67;0.00;;;26.90;99.90;;;;;;5035857;28;20025;-74
2023/08/20 11:04:09;;;;;;;0.70;0.00;;;27.10;99.90;;;;;;5035568;28;20048;-74
2023/08/20 11:06:35;;;;;;;2.20;0.03;;;26.90;99.30;;;;;;5034531;28;20030;-75
2023/08/20 11:09:03;;;;;;;1.85;0.15;;;26.70;99.30;;;;;;5035571;28;20026;-74
2023/08/20 11:11:29;;;;;;;;;;;26.60;99.00;;;;;;5034900;28;20092;-74
2023/08/20 11:13:55;;;;;;;1.65;0.15;;;26.80;98.20;;;;;;5035649;28;19936;-75
2023/08/20 11:16:20;;;;;;;2.53;0.00;;;27.10;99.60;;;;;;5035429;28;20469;-74
2023/08/20 11:18:46;;;;;;;2.67;0.00;;;27.30;98.40;;;;;;5035441;28;20075;-74
2023/08/20 11:21:15;;;;;;;1.05;0.00;;;27.60;97.70;;;;;;5034189;28;20091;-73
2023/08/20 11:23:42;;;;;;;0.30;0.00;;;27.70;95.40;;;;;;5035566;28;20091;-74
2023/08/20 11:26:08;;;;;;;1.88;0.47;;;27.40;96.00;;;;;;5035198;28;20061;-76
2023/08/20 11:28:34;;;;;;;0.60;0.05;;;27.40;95.10;;;;;;5035307;28;20028;-73
2023/08/20 11:31:03;;;;;;;0.80;0.10;;;27.50;95.00;;;;;;5035301;28;20097;-74
2023/08/20 11:33:29;;;;;;;1.48;0.00;;;27.80;97.40;;;;;;5035287;28;20017;-75
2023/08/20 11:35:54;;;;;;;0.95;0.00;;;28.10;96.70;;;;;;5035439;28;20022;-75
2023/08/20 11:38:25;;;;;;;1.63;0.10;;;28.10;95.10;;;;;;5035134;28;20424;-76
2023/08/20 11:40:51;;;;;;;13.90;0.88;;;28.00;95.10;;;;;;5035404;28;20025;-76
2023/08/20 11:43:17;;;;;;;13.40;2.05;;;27.90;97.10;;;;;;5033820;28;20121;-74
2023/08/20 11:45:47;;;;;;;1.10;0.00;;;28.10;97.90;;;;;;5035522;28;20105;-76
2023/08/20 11:48:14;;;;;;;2.80;0.00;;;28.00;94.30;;;;;;5035196;28;20024;-73
2023/08/20 11:50:40;;;;;;;1.88;0.00;;;28.10;95.10;;;;;;5034946;28;20014;-74
2023/08/20 11:53:07;;;;;;;2.75;0.30;;;28.30;96.60;;;;;;5035043;28;20026;-76
2023/08/20 11:55:33;;;;;;;4.55;0.32;;;28.40;92.70;;;;;;5035142;28;20028;-77
2023/08/20 11:57:58;;;;;;;0.90;0.00;;;28.60;93.50;;;;;;5035235;28;20473;-77
2023/08/20 12:00:29;;;;;;;2.53;0.00;;;28.80;91.70;;;;;;5033503;28;20041;-77
2023/08/20 12:02:55;;;;;;;0.88;0.10;;;29.10;91.70;;;;;;5034842;28;20021;-74
2023/08/20 12:05:28;;;;;;;0.70;0.00;;;28.90;90.90;;;;;;5034679;28;20029;-73
2023/08/20 12:08:00;;;;;;;1.20;0.25;;;29.10;87.70;;;;;;5034823;28;20393;-73
2023/08/20 12:10:27;;;;;;;1.20;0.03;;;29.30;89.50;;;;;;5034548;28;20112;-74
2023/08/20 12:12:53;;;;;;;1.08;0.00;;;29.30;87.30;;;;;;5033294;28;20401;-73
2023/08/20 12:15:20;;;;;;;0.60;0.08;;;29.40;85.70;;;;;;5034418;28;20017;-74
2023/08/20 12:18:04;;;;;;;2.13;0.00;;;29.60;87.80;;;;;;5035037;28;20469;-74
2023/08/20 12:20:31;;;;;;;1.88;0.00;;;29.90;90.90;;;;;;5033189;28;20075;-73
2023/08/20 12:23:02;;;;;;;0.30;0.00;;;29.80;91.10;;;;;;5034107;28;20460;-73
2023/08/20 12:25:32;;;;;;;0.93;0.00;;;29.80;87.20;;;;;;5034233;28;20029;-74
2023/08/20 12:27:57;;;;;;;1.60;0.00;;;30.10;88.50;;;;;;5034421;28;20381;-74
2023/08/20 12:30:23;;;;;;;0.82;0.00;;;30.40;86.20;;;;;;5034422;28;20024;-75
2023/08/20 12:32:49;;;;;;;1.35;0.10;;;30.90;90.40;;;;;;5033973;28;20030;-75
2023/08/20 12:35:14;;;;;;;1.08;0.00;;;31.00;88.10;;;;;;5032836;28;20021;-76
2023/08/20 12:37:40;;;;;;;3.78;0.13;;;30.80;85.30;;;;;;5034631;28;20132;-76
2023/08/20 12:40:10;;;;;;;0.68;0.10;;;30.80;89.20;;;;;;5032898;28;20028;-76
2023/08/20 12:42:39;;;;;;;1.85;0.43;;;30.80;90.70;;;;;;5033842;28;20037;-75
2023/08/20 12:45:08;;;;;;;1.92;0.00;;;31.00;88.80;;;;;;5034131;28;20025;-76
2023/08/20 12:47:37;;;;;;;1.85;0.00;;;30.80;90.40;;;;;;5033144;28;20028;-76